Time;durP1;ratioP1;P1;durP2;ratioP2;P2;SDS_P1;SDS_P2;PMS_P1;PMS_P2;Temp;Humidity;BMP_temperature;BMP_pressure;BME280_temperature;BME280_humidity;BME280_pressure;Samples;Min_cycle;Max_cycle;Signal;HPM_P1;HPM_P2
2023/07/21 00:00:50;;;;;;;6.60;3.53;;;;;;;29.92;41.17;98198.81;2079178;28;20112;-53
2023/07/21 00:01:53;;;;;;;7.53;4.03;;;;;;;29.90;41.12;98194.72;2069678;28;20607;-50
2023/07/21 00:02:54;;;;;;;7.25;4.18;;;;;;;29.86;41.06;98194.47;2081121;28;20056;-53
2023/07/21 00:03:56;;;;;;;7.40;4.45;;;;;;;29.94;41.20;98204.78;2087602;28;20394;-50
2023/07/21 00:04:57;;;;;;;6.13;3.95;;;;;;;29.96;40.89;98199.03;2086149;28;20288;-50
2023/07/21 00:06:00;;;;;;;8.18;4.93;;;;;;;29.93;41.37;98200.41;2087933;28;20103;-54
2023/07/21 00:07:02;;;;;;;8.00;4.25;;;;;;;29.93;41.30;98203.16;2086022;28;20567;-50
2023/07/21 00:08:04;;;;;;;5.65;3.67;;;;;;;29.93;41.14;98203.16;2085343;28;20150;-53
2023/07/21 00:09:06;;;;;;;8.75;3.47;;;;;;;29.87;41.20;98195.31;2086186;28;20148;-54
2023/07/21 00:10:10;;;;;;;8.15;3.80;;;;;;;29.82;41.31;98198.91;2084446;28;20566;-53
2023/07/21 00:11:10;;;;;;;7.82;3.90;;;;;;;29.78;41.43;98195.94;2080048;28;20075;-54
2023/07/21 00:12:12;;;;;;;10.20;4.88;;;;;;;29.84;41.15;98196.69;2078202;28;20117;-51
2023/07/21 00:13:14;;;;;;;6.15;4.82;;;;;;;29.84;41.40;98196.69;2086178;28;20087;-53
2023/07/21 00:14:16;;;;;;;11.18;3.72;;;;;;;29.84;41.36;98191.22;2086549;28;20110;-55
2023/07/21 00:15:18;;;;;;;6.22;3.83;;;;;;;29.83;41.55;98195.03;2091404;28;20036;-56
2023/07/21 00:16:21;;;;;;;7.03;4.22;;;;;;;29.84;41.25;98192.03;2084936;28;20056;-53
2023/07/21 00:17:23;;;;;;;12.32;3.92;;;;;;;29.86;41.66;98191.72;2081506;28;20045;-53
2023/07/21 00:18:24;;;;;;;9.68;4.53;;;;;;;29.89;41.54;98190.34;2079940;28;20483;-56
2023/07/21 00:19:25;;;;;;;6.13;3.80;;;;;;;29.89;41.42;98193.06;2078237;28;20045;-52
2023/07/21 00:20:29;;;;;;;8.00;4.35;;;;;;;29.86;41.34;98190.91;2079290;28;20387;-52
2023/07/21 00:21:30;;;;;;;11.13;4.22;;;;;;;29.85;41.78;98190.13;2076741;28;20512;-54
2023/07/21 00:22:32;;;;;;;5.68;3.72;;;;;;;29.86;41.50;98193.66;2074033;28;20041;-50
2023/07/21 00:23:33;;;;;;;8.13;5.03;;;;;;;29.85;41.48;98187.38;2079977;28;20045;-56
2023/07/21 00:24:35;;;;;;;8.38;3.97;;;;;;;29.84;41.74;98183.84;2080949;28;20461;-53
2023/07/21 00:25:36;;;;;;;6.93;4.22;;;;;;;29.83;41.67;98181.38;2080185;28;20102;-55
2023/07/21 00:26:37;;;;;;;8.18;4.00;;;;;;;29.84;41.39;98180.28;2077474;28;20111;-54
2023/07/21 00:27:38;;;;;;;7.30;4.38;;;;;;;29.85;41.68;98176.44;2076231;28;20813;-54
2023/07/21 00:28:40;;;;;;;5.90;4.32;;;;;;;29.85;41.57;98181.91;2074668;28;20045;-51
2023/07/21 00:29:41;;;;;;;7.22;4.70;;;;;;;29.85;41.45;98176.44;2078535;28;20751;-54
2023/07/21 00:30:43;;;;;;;6.32;4.53;;;;;;;29.81;41.59;98173.47;2090778;28;20055;-52
2023/07/21 00:31:48;;;;;;;5.20;4.22;;;;;;;29.82;41.62;98180.56;2081372;28;20052;-51
2023/07/21 00:32:49;;;;;;;8.70;4.20;;;;;;;29.80;41.74;98179.22;2079133;28;20083;-53
2023/07/21 00:33:51;;;;;;;6.50;4.20;;;;;;;29.80;41.66;98187.44;2079676;28;20080;-56
2023/07/21 00:34:52;;;;;;;5.68;4.30;;;;;;;29.82;41.51;98179.75;2077906;28;20060;-50
2023/07/21 00:35:55;;;;;;;12.63;4.07;;;;;;;29.83;41.63;98181.38;2076259;28;20767;-55
2023/07/21 00:36:56;;;;;;;10.13;4.28;;;;;;;29.84;41.70;98175.63;2079787;28;20079;-55
2023/07/21 00:38:01;;;;;;;9.25;5.38;;;;;;;29.86;41.48;98178.06;2079275;28;20060;-53
2023/07/21 00:39:03;;;;;;;8.40;3.72;;;;;;;29.88;41.76;98184.06;2077711;28;20092;-54
2023/07/21 00:40:09;;;;;;;7.43;4.07;;;;;;;29.87;41.73;98171.50;2078283;28;20220;-53
2023/07/21 00:41:12;;;;;;;7.53;4.55;;;;;;;29.88;41.80;98172.31;2079171;28;20099;-54
2023/07/21 00:42:12;;;;;;;6.95;4.20;;;;;;;29.86;41.33;98171.78;2077966;28;20041;-52
2023/07/21 00:43:17;;;;;;;8.65;4.50;;;;;;;29.85;41.50;98170.97;2078937;28;20065;-50
2023/07/21 00:44:18;;;;;;;6.05;4.32;;;;;;;29.85;41.79;98162.78;2076827;28;20229;-55
2023/07/21 00:45:20;;;;;;;5.57;4.03;;;;;;;29.89;41.73;98163.81;2073373;28;20132;-52
2023/07/21 00:46:23;;;;;;;6.15;3.97;;;;;;;29.87;41.87;98152.38;2080492;28;20059;-53
2023/07/21 00:47:27;;;;;;;8.20;4.38;;;;;;;29.82;41.58;98161.44;2079969;28;20059;-54
2023/07/21 00:48:28;;;;;;;8.35;4.70;;;;;;;29.82;41.54;98163.34;2084333;28;20040;-56
2023/07/21 00:49:31;;;;;;;4.82;3.70;;;;;;;29.79;41.58;98166.66;2079056;28;20072;-53
2023/07/21 00:50:32;;;;;;;6.82;4.30;;;;;;;29.77;41.52;98157.94;2079754;28;20105;-55
2023/07/21 00:51:34;;;;;;;5.60;3.80;;;;;;;29.77;41.31;98158.75;2079467;28;20502;-56
2023/07/21 00:52:35;;;;;;;7.57;4.35;;;;;;;29.78;41.22;98160.38;2077766;28;20073;-56
2023/07/21 00:53:37;;;;;;;6.20;3.67;;;;;;;29.80;41.31;98160.91;2077275;28;20071;-53
2023/07/21 00:54:38;;;;;;;7.50;4.25;;;;;;;29.78;41.47;98154.94;2078711;28;20042;-53
2023/07/21 00:55:41;;;;;;;7.47;3.72;;;;;;;29.82;41.08;98161.44;2079161;28;20045;-53
2023/07/21 00:56:42;;;;;;;5.00;3.95;;;;;;;29.80;41.43;98162.81;2077908;28;20045;-55
2023/07/21 00:57:45;;;;;;;7.10;4.25;;;;;;;29.77;40.65;98160.66;2077092;28;20045;-53
2023/07/21 00:58:47;;;;;;;8.57;4.25;;;;;;;29.77;41.24;98160.66;2081756;28;20056;-53
2023/07/21 00:59:49;;;;;;;7.32;4.03;;;;;;;29.78;41.21;98151.34;2080275;28;20168;-54
2023/07/21 01:00:50;;;;;;;8.57;4.50;;;;;;;29.73;41.25;98154.16;2075928;28;20593;-56
2023/07/21 01:01:52;;;;;;;6.30;3.72;;;;;;;29.74;41.03;98153.84;2076050;28;20053;-53
2023/07/21 01:02:56;;;;;;;7.47;4.35;;;;;;;29.75;41.14;98149.19;2080618;28;20076;-52
2023/07/21 01:03:58;;;;;;;6.70;3.70;;;;;;;29.72;40.85;98150.59;2078987;28;20140;-54
2023/07/21 01:05:01;;;;;;;7.30;4.43;;;;;;;29.74;40.98;98153.06;2082099;28;20079;-54
2023/07/21 01:06:04;;;;;;;4.38;3.38;;;;;;;29.73;40.55;98156.91;2087336;28;20601;-53
2023/07/21 01:07:09;;;;;;;12.90;4.68;;;;;;;29.71;41.08;98153.63;2087968;28;20518;-52
2023/07/21 01:08:11;;;;;;;6.97;4.63;;;;;;;29.72;40.84;98149.78;2088647;28;20097;-52
2023/07/21 01:09:14;;;;;;;7.90;3.40;;;;;;;29.72;40.77;98145.13;2088778;28;20411;-55
2023/07/21 01:10:15;;;;;;;6.50;4.07;;;;;;;29.72;40.87;98142.38;2086907;28;20049;-52
2023/07/21 01:11:17;;;;;;;6.47;3.80;;;;;;;29.75;40.60;98149.19;2087556;28;20045;-54
2023/07/21 01:12:18;;;;;;;8.65;3.72;;;;;;;29.74;40.70;98142.13;2088738;28;20049;-54
2023/07/21 01:13:22;;;;;;;7.45;3.72;;;;;;;29.72;40.83;98141.59;2086572;28;20090;-53
2023/07/21 01:14:23;;;;;;;6.13;3.22;;;;;;;29.68;40.83;98140.53;2085529;28;20049;-55
2023/07/21 01:15:26;;;;;;;5.82;4.03;;;;;;;29.68;40.80;98144.09;2086688;28;20587;-50
2023/07/21 01:16:27;;;;;;;6.88;3.65;;;;;;;29.68;40.71;98144.09;2085804;28;20053;-54
2023/07/21 01:17:30;;;;;;;4.95;3.63;;;;;;;29.70;40.91;98143.78;2088114;28;20119;-55
2023/07/21 01:18:33;;;;;;;5.50;3.50;;;;;;;29.74;41.00;98133.91;2083968;28;20288;-52
2023/07/21 01:19:37;;;;;;;7.45;4.25;;;;;;;29.72;40.77;98136.94;2072838;28;20276;-55
2023/07/21 01:20:39;;;;;;;4.78;3.50;;;;;;;29.70;40.69;98136.41;2079179;28;20083;-55
2023/07/21 01:21:48;;;;;;;9.60;4.45;;;;;;;29.71;40.83;98139.97;2079799;28;20071;-53
2023/07/21 01:22:52;;;;;;;6.78;3.22;;;;;;;29.73;41.07;98138.56;2077652;28;20053;-54
2023/07/21 01:23:59;;;;;;;5.80;4.03;;;;;;;29.74;40.56;98137.47;2076510;28;20052;-55
2023/07/21 01:25:09;;;;;;;4.03;2.80;;;;;;;29.75;41.02;98149.19;2076457;28;20506;-53
2023/07/21 01:26:12;;;;;;;9.05;3.20;;;;;;;29.71;40.90;98138.03;2077580;28;20069;-56
2023/07/21 01:27:15;;;;;;;7.72;4.18;;;;;;;29.72;40.94;98141.59;2078689;28;20140;-53
2023/07/21 01:28:19;;;;;;;7.32;3.67;;;;;;;29.73;41.12;98143.22;2078245;28;20050;-52
2023/07/21 01:29:23;;;;;;;5.82;3.70;;;;;;;29.73;40.98;98145.97;2077059;28;20095;-52
2023/07/21 01:30:26;;;;;;;8.40;3.70;;;;;;;29.73;40.99;98148.69;2079805;28;20049;-54
2023/07/21 01:31:27;;;;;;;6.57;3.40;;;;;;;29.73;41.13;98140.50;2085734;28;20076;-55
2023/07/21 01:32:29;;;;;;;5.82;3.85;;;;;;;29.74;41.03;98144.84;2083153;28;20237;-53
2023/07/21 01:33:32;;;;;;;7.55;2.97;;;;;;;29.75;40.95;98132.81;2079836;28;20127;-52
2023/07/21 01:34:34;;;;;;;5.70;4.20;;;;;;;29.73;41.00;98141.31;2077367;28;20053;-52
2023/07/21 01:35:37;;;;;;;8.77;4.30;;;;;;;29.74;40.96;98145.66;2079580;28;20515;-56
2023/07/21 01:36:39;;;;;;;5.15;3.35;;;;;;;29.73;40.99;98146.78;2072756;28;20477;-55
2023/07/21 01:37:43;;;;;;;7.72;4.13;;;;;;;29.72;41.08;98145.13;2079003;28;20052;-49
2023/07/21 01:38:46;;;;;;;7.70;4.55;;;;;;;29.72;40.91;98142.38;2076899;28;20073;-54
2023/07/21 01:39:47;;;;;;;7.88;3.22;;;;;;;29.72;41.26;98144.31;2078186;28;20084;-55
2023/07/21 01:40:52;;;;;;;7.82;3.20;;;;;;;29.71;41.15;98139.97;2077428;28;20046;-54
2023/07/21 01:41:54;;;;;;;9.85;4.13;;;;;;;29.70;41.12;98139.16;2079413;28;20193;-54
2023/07/21 01:42:56;;;;;;;8.52;4.57;;;;;;;29.72;40.91;98144.31;2078556;28;20053;-53
2023/07/21 01:43:58;;;;;;;5.40;3.45;;;;;;;29.72;41.18;98139.66;2078221;28;20056;-54
2023/07/21 01:45:02;;;;;;;5.78;3.50;;;;;;;29.71;41.70;98137.22;2080486;28;20049;-55
2023/07/21 01:46:04;;;;;;;7.80;4.78;;;;;;;29.69;41.09;98136.69;2084794;28;20066;-49
2023/07/21 01:47:06;;;;;;;7.47;4.03;;;;;;;29.69;41.07;98133.97;2087040;28;20049;-53
2023/07/21 01:48:09;;;;;;;10.13;4.13;;;;;;;29.69;41.24;98128.50;2085883;28;20059;-54
2023/07/21 01:49:10;;;;;;;7.68;3.78;;;;;;;29.68;41.34;98135.06;2086209;28;20064;-50
2023/07/21 01:50:13;;;;;;;8.07;4.05;;;;;;;29.67;41.35;98133.44;2086842;28;20041;-56
2023/07/21 01:51:16;;;;;;;4.60;3.17;;;;;;;29.65;41.25;98128.28;2086711;28;20111;-52
2023/07/21 01:52:18;;;;;;;6.35;3.75;;;;;;;29.65;41.38;98127.47;2087180;28;20079;-54
2023/07/21 01:53:24;;;;;;;6.70;3.47;;;;;;;29.64;41.04;98123.88;2080946;28;20048;-53
2023/07/21 01:54:31;;;;;;;8.45;4.25;;;;;;;29.62;41.02;98124.16;2086979;28;20045;-53
2023/07/21 01:55:37;;;;;;;5.95;3.35;;;;;;;29.57;40.84;98123.41;2087872;28;20128;-52
2023/07/21 01:56:47;;;;;;;5.63;4.05;;;;;;;29.58;41.43;98130.47;2089002;28;20155;-53
2023/07/21 01:57:54;;;;;;;5.90;3.70;;;;;;;29.57;41.02;98129.66;2088353;28;20468;-54
2023/07/21 01:59:00;;;;;;;6.80;3.90;;;;;;;29.58;41.30;98125.00;2087641;28;20056;-53
2023/07/21 02:00:04;;;;;;;8.95;3.75;;;;;;;29.58;41.07;98123.09;2087715;28;20090;-52
2023/07/21 02:01:06;;;;;;;9.13;3.75;;;;;;;29.62;41.17;98128.81;2085397;28;20060;-53
2023/07/21 02:02:08;;;;;;;4.05;3.38;;;;;;;29.65;40.97;98127.47;2087135;28;20052;-49
2023/07/21 02:03:11;;;;;;;7.63;3.67;;;;;;;29.64;41.02;98123.06;2085970;28;20056;-52
2023/07/21 02:04:13;;;;;;;6.00;3.58;;;;;;;29.62;40.74;98120.63;2086817;28;20048;-53
2023/07/21 02:05:23;;;;;;;7.07;3.70;;;;;;;29.64;40.74;98114.88;2087252;28;20477;-55
2023/07/21 02:06:23;;;;;;;5.00;3.00;;;;;;;29.64;40.59;98109.41;2087449;28;20079;-54
2023/07/21 02:07:25;;;;;;;7.93;3.20;;;;;;;29.63;40.78;98108.59;2086363;28;20068;-52
2023/07/21 02:08:26;;;;;;;5.07;3.40;;;;;;;29.60;40.90;98111.88;2086401;28;20097;-52
2023/07/21 02:09:28;;;;;;;5.20;3.58;;;;;;;29.60;40.92;98112.69;2086595;28;20102;-53
2023/07/21 02:10:29;;;;;;;6.70;3.65;;;;;;;29.61;40.88;98110.78;2088155;28;20064;-51
2023/07/21 02:11:30;;;;;;;10.55;3.70;;;;;;;29.60;40.63;98111.88;2081367;28;20624;-55
2023/07/21 02:12:33;;;;;;;6.93;3.67;;;;;;;29.57;41.25;98116.00;2085973;28;20070;-50
2023/07/21 02:13:35;;;;;;;6.75;3.33;;;;;;;29.58;41.21;98111.34;2085505;28;20120;-51
2023/07/21 02:14:35;;;;;;;7.90;3.75;;;;;;;29.58;41.00;98114.91;2087286;28;20045;-52
2023/07/21 02:15:37;;;;;;;9.57;3.90;;;;;;;29.58;41.19;98116.81;2087146;28;20049;-53
2023/07/21 02:16:38;;;;;;;6.75;3.55;;;;;;;29.55;41.07;98109.19;2087794;28;20490;-56
2023/07/21 02:17:40;;;;;;;10.00;3.60;;;;;;;29.56;40.99;98114.38;2083582;28;20052;-56
2023/07/21 02:18:42;;;;;;;9.40;4.07;;;;;;;29.55;40.91;98111.94;2082803;28;20105;-54
2023/07/21 02:19:44;;;;;;;4.57;3.35;;;;;;;29.56;40.71;98114.38;2085760;28;20375;-52
2023/07/21 02:20:45;;;;;;;7.03;3.92;;;;;;;29.56;41.08;98113.56;2086265;28;20140;-53
2023/07/21 02:21:46;;;;;;;5.80;3.28;;;;;;;29.53;40.94;98114.97;2085713;28;20426;-55
2023/07/21 02:22:47;;;;;;;6.50;3.28;;;;;;;29.55;40.92;98112.75;2088124;28;20049;-55
2023/07/21 02:23:49;;;;;;;5.10;3.05;;;;;;;29.56;40.38;98114.38;2085186;28;20628;-52
2023/07/21 02:24:50;;;;;;;9.35;4.22;;;;;;;29.56;40.95;98108.09;2087859;28;20048;-55
2023/07/21 02:25:52;;;;;;;8.38;3.30;;;;;;;29.56;40.85;98111.66;2085587;28;20509;-52
2023/07/21 02:26:53;;;;;;;4.78;3.25;;;;;;;29.56;41.19;98103.47;2087395;28;20048;-56
2023/07/21 02:27:57;;;;;;;5.35;3.33;;;;;;;29.56;41.01;98103.47;2087462;28;20054;-50
2023/07/21 02:28:58;;;;;;;8.23;3.72;;;;;;;29.55;41.13;98096.34;2086847;28;20132;-53
2023/07/21 02:30:00;;;;;;;7.95;3.03;;;;;;;29.54;41.13;98104.84;2080742;28;20133;-54
2023/07/21 02:31:04;;;;;;;8.52;3.50;;;;;;;29.55;41.33;98101.00;2086529;28;20103;-54
2023/07/21 02:32:07;;;;;;;3.65;3.13;;;;;;;29.53;41.39;98093.09;2086384;28;20040;-56
2023/07/21 02:33:08;;;;;;;8.25;3.70;;;;;;;29.54;41.17;98100.19;2086398;28;20064;-51
2023/07/21 02:34:10;;;;;;;8.40;3.78;;;;;;;29.57;41.39;98105.06;2088349;28;20048;-53
2023/07/21 02:35:11;;;;;;;5.65;3.38;;;;;;;29.58;41.35;98093.03;2086858;28;20088;-55
2023/07/21 02:36:12;;;;;;;7.30;3.92;;;;;;;29.59;41.46;98094.69;2087620;28;20091;-53
2023/07/21 02:37:13;;;;;;;6.50;3.47;;;;;;;29.60;41.61;98098.22;2086262;28;20419;-51
2023/07/21 02:38:15;;;;;;;4.10;2.53;;;;;;;29.61;41.56;98088.91;2087879;28;20049;-56
2023/07/21 02:39:16;;;;;;;6.03;3.10;;;;;;;29.63;41.93;98092.22;2084853;28;20493;-53
2023/07/21 02:40:18;;;;;;;6.03;4.13;;;;;;;29.63;41.53;98084.00;2086714;28;20041;-54
2023/07/21 02:41:19;;;;;;;4.82;3.05;;;;;;;29.64;41.66;98080.16;2087368;28;20522;-51
2023/07/21 02:42:20;;;;;;;10.18;4.10;;;;;;;29.63;42.03;98086.75;2087757;28;20051;-54
2023/07/21 02:43:23;;;;;;;10.20;4.32;;;;;;;29.62;41.86;98083.16;2087004;28;20052;-54
2023/07/21 02:44:25;;;;;;;6.35;3.25;;;;;;;29.60;42.05;98081.81;2086039;28;20060;-53
2023/07/21 02:45:26;;;;;;;8.45;3.78;;;;;;;29.61;41.96;98089.75;2081063;28;20505;-55
2023/07/21 02:46:27;;;;;;;6.30;3.45;;;;;;;29.61;42.19;98089.75;2085678;28;20051;-51
2023/07/21 02:47:28;;;;;;;6.90;4.00;;;;;;;29.62;41.70;98085.09;2088699;28;20044;-54
2023/07/21 02:48:31;;;;;;;7.25;3.72;;;;;;;29.63;41.95;98084.00;2086684;28;20041;-52
2023/07/21 02:49:31;;;;;;;7.95;3.25;;;;;;;29.61;41.92;98084.28;2086540;28;20049;-54
2023/07/21 02:50:34;;;;;;;8.50;3.85;;;;;;;29.61;41.81;98084.28;2086336;28;20572;-51
2023/07/21 02:51:35;;;;;;;6.43;3.92;;;;;;;29.58;41.89;98086.75;2086147;28;20060;-53
2023/07/21 02:52:38;;;;;;;6.97;3.47;;;;;;;29.57;41.78;98085.13;2087697;28;20443;-54
2023/07/21 02:53:39;;;;;;;4.80;3.35;;;;;;;29.47;41.67;98093.44;2088202;28;20070;-53
2023/07/21 02:54:41;;;;;;;6.95;3.72;;;;;;;29.40;41.92;98094.59;2083968;28;20461;-55
2023/07/21 02:55:42;;;;;;;12.45;4.07;;;;;;;29.36;41.82;98095.44;2087173;28;20510;-54
2023/07/21 02:56:44;;;;;;;5.18;3.53;;;;;;;29.39;41.61;98094.88;2086948;28;20056;-54
2023/07/21 02:57:45;;;;;;;9.43;4.07;;;;;;;29.41;41.71;98100.88;2086707;28;20098;-52
2023/07/21 02:58:49;;;;;;;6.95;4.30;;;;;;;29.41;41.50;98095.41;2087346;28;20366;-55
2023/07/21 02:59:50;;;;;;;5.10;3.08;;;;;;;29.37;42.19;98094.34;2088196;28;20108;-53
2023/07/21 03:00:54;;;;;;;10.80;4.95;;;;;;;29.38;41.83;98101.44;2086970;28;20106;-52
2023/07/21 03:01:56;;;;;;;9.63;3.72;;;;;;;29.42;41.95;98102.50;2086390;28;20076;-54
2023/07/21 03:02:58;;;;;;;6.43;4.22;;;;;;;29.45;41.56;98101.09;2080950;28;20144;-52
2023/07/21 03:03:59;;;;;;;4.63;3.05;;;;;;;29.44;41.93;98097.56;2083130;28;20053;-55
2023/07/21 03:05:03;;;;;;;6.47;3.55;;;;;;;29.42;41.88;98105.25;2088203;28;20497;-54
2023/07/21 03:06:05;;;;;;;6.65;3.75;;;;;;;29.43;42.16;98098.66;2084059;28;20063;-57
2023/07/21 03:07:07;;;;;;;8.85;3.53;;;;;;;29.44;42.06;98097.56;2088009;28;20059;-53
2023/07/21 03:08:08;;;;;;;7.90;4.10;;;;;;;29.45;41.71;98101.94;2082564;28;20551;-53
2023/07/21 03:09:10;;;;;;;7.65;3.80;;;;;;;29.46;42.03;98103.56;2076928;28;20049;-53
2023/07/21 03:10:12;;;;;;;7.22;3.97;;;;;;;29.45;42.03;98101.94;2077774;28;20139;-56
2023/07/21 03:11:14;;;;;;;6.40;3.80;;;;;;;29.48;42.10;98098.63;2084930;28;20051;-55
2023/07/21 03:12:14;;;;;;;8.65;3.60;;;;;;;29.43;42.26;98104.13;2087112;28;20558;-55
2023/07/21 03:13:16;;;;;;;8.20;3.10;;;;;;;29.44;42.20;98108.47;2086612;28;20075;-56
2023/07/21 03:14:19;;;;;;;7.53;3.95;;;;;;;29.49;42.20;98107.63;2086979;28;20105;-53
2023/07/21 03:15:20;;;;;;;8.18;4.00;;;;;;;29.49;42.13;98102.97;2085557;28;20045;-52
2023/07/21 03:16:21;;;;;;;5.85;3.40;;;;;;;29.48;42.29;98095.09;2087201;28;20045;-53
2023/07/21 03:17:23;;;;;;;6.30;3.38;;;;;;;29.44;42.56;98094.00;2086249;28;20110;-52
2023/07/21 03:18:24;;;;;;;7.25;4.25;;;;;;;29.37;42.61;98095.16;2085449;28;20045;-51
2023/07/21 03:19:26;;;;;;;10.05;5.55;;;;;;;29.42;42.64;98091.59;2080965;28;20097;-54
2023/07/21 03:20:27;;;;;;;5.50;3.47;;;;;;;29.43;42.55;98097.84;2082840;28;20040;-54
2023/07/21 03:21:28;;;;;;;7.40;3.70;;;;;;;29.40;42.62;98102.78;2085831;28;20716;-52
2023/07/21 03:22:31;;;;;;;6.68;3.75;;;;;;;29.40;42.58;98104.72;2085653;28;20456;-55
2023/07/21 03:23:33;;;;;;;7.15;3.55;;;;;;;29.41;42.72;98103.59;2087861;28;20590;-55
2023/07/21 03:24:34;;;;;;;8.73;3.80;;;;;;;29.41;42.70;98103.59;2087273;28;20310;-53
2023/07/21 03:25:37;;;;;;;8.40;3.95;;;;;;;29.46;42.48;98105.47;2086607;28;20048;-55
2023/07/21 03:26:38;;;;;;;8.45;4.65;;;;;;;29.41;42.65;98103.59;2084827;28;20640;-52
2023/07/21 03:27:40;;;;;;;6.90;3.60;;;;;;;29.41;42.70;98109.06;2088406;28;20048;-52
2023/07/21 03:28:41;;;;;;;5.45;3.47;;;;;;;29.43;42.71;98109.59;2086051;28;20558;-54
2023/07/21 03:29:46;;;;;;;9.52;4.25;;;;;;;29.42;42.88;98109.88;2087621;28;20041;-55
2023/07/21 03:30:56;;;;;;;8.18;3.25;;;;;;;29.37;42.58;98108.03;2084167;28;20083;-54
2023/07/21 03:31:58;;;;;;;11.55;3.60;;;;;;;29.38;42.89;98107.72;2088811;28;20503;-55
2023/07/21 03:32:59;;;;;;;4.43;3.40;;;;;;;29.40;43.00;98110.16;2084652;28;20084;-52
2023/07/21 03:34:00;;;;;;;6.68;3.22;;;;;;;29.40;43.07;98112.91;2085815;28;20061;-53
2023/07/21 03:35:05;;;;;;;10.55;4.22;;;;;;;29.40;43.34;98113.72;2088029;28;20048;-53
2023/07/21 03:36:07;;;;;;;5.10;3.33;;;;;;;29.42;42.99;98118.06;2087673;28;20486;-55
2023/07/21 03:37:09;;;;;;;7.10;3.90;;;;;;;29.39;43.17;98116.72;2083489;28;20363;-55
2023/07/21 03:38:09;;;;;;;10.00;4.35;;;;;;;29.40;42.91;98112.91;2085194;28;20135;-52
2023/07/21 03:39:11;;;;;;;8.40;4.15;;;;;;;29.43;43.26;98115.06;2085521;28;20187;-56
2023/07/21 03:40:12;;;;;;;8.02;3.83;;;;;;;29.43;42.92;98114.25;2088612;28;20041;-53
2023/07/21 03:41:14;;;;;;;7.38;3.83;;;;;;;29.45;43.21;98109.28;2088092;28;20132;-52
2023/07/21 03:42:15;;;;;;;6.22;3.53;;;;;;;29.43;43.13;98112.31;2087195;28;20469;-55
2023/07/21 03:43:17;;;;;;;8.43;3.53;;;;;;;29.47;43.34;98121.56;2086679;28;20551;-53
2023/07/21 03:44:18;;;;;;;6.65;4.00;;;;;;;29.41;43.36;98117.25;2086469;28;20402;-54
2023/07/21 03:45:21;;;;;;;8.73;4.10;;;;;;;29.39;43.35;98119.44;2087441;28;20072;-55
2023/07/21 03:46:22;;;;;;;8.85;4.13;;;;;;;29.36;43.36;98120.03;2085316;28;20522;-55
2023/07/21 03:47:23;;;;;;;8.02;3.83;;;;;;;29.39;43.36;98125.75;2087276;28;20048;-53
2023/07/21 03:48:25;;;;;;;6.32;4.00;;;;;;;29.42;43.23;98120.78;2086341;28;20330;-53
2023/07/21 03:49:26;;;;;;;7.78;4.18;;;;;;;29.42;43.30;98120.78;2086996;28;20698;-55
2023/07/21 03:50:29;;;;;;;6.65;3.70;;;;;;;29.40;43.50;98113.72;2087221;28;20049;-54
2023/07/21 03:51:29;;;;;;;5.07;2.70;;;;;;;29.39;43.42;98119.44;2087020;28;20614;-51
2023/07/21 03:52:32;;;;;;;8.52;3.67;;;;;;;29.38;43.31;98117.84;2088067;28;20044;-51
2023/07/21 03:53:33;;;;;;;7.60;3.47;;;;;;;29.38;43.33;98117.84;2087765;28;20044;-51
2023/07/21 03:54:33;;;;;;;6.55;3.38;;;;;;;29.39;43.17;98116.72;2083936;28;20567;-55
2023/07/21 03:55:38;;;;;;;7.45;3.03;;;;;;;29.43;43.43;98120.53;2083405;28;20608;-56
2023/07/21 03:56:39;;;;;;;9.15;3.90;;;;;;;29.42;43.13;98124.38;2086623;28;20378;-54
2023/07/21 03:57:41;;;;;;;7.00;3.08;;;;;;;29.43;43.19;98119.72;2086223;28;20414;-53
2023/07/21 03:58:43;;;;;;;6.78;4.22;;;;;;;29.40;43.38;98121.09;2090022;28;20053;-57
2023/07/21 03:59:45;;;;;;;5.72;3.88;;;;;;;29.37;43.28;98133.41;2088607;28;20044;-54
2023/07/21 04:00:48;;;;;;;8.77;3.72;;;;;;;29.35;43.37;98138.34;2087580;28;20483;-53
2023/07/21 04:01:50;;;;;;;9.90;3.42;;;;;;;29.35;43.55;98134.78;2085557;28;20053;-54
2023/07/21 04:02:51;;;;;;;9.77;3.65;;;;;;;29.32;43.67;98135.38;2086619;28;20064;-52
2023/07/21 04:03:53;;;;;;;4.93;3.75;;;;;;;29.32;43.81;98141.66;2086683;28;20052;-54
2023/07/21 04:04:54;;;;;;;5.10;3.35;;;;;;;29.32;43.50;98143.56;2088231;28;20041;-51
2023/07/21 04:05:57;;;;;;;9.30;4.00;;;;;;;29.30;43.46;98143.03;2086309;28;20045;-55
2023/07/21 04:06:59;;;;;;;6.65;4.25;;;;;;;29.31;43.46;98156.41;2088372;28;20585;-52
2023/07/21 04:08:00;;;;;;;22.48;5.82;;;;;;;29.30;43.48;98148.50;2084720;28;20066;-57
2023/07/21 04:09:02;;;;;;;7.30;3.85;;;;;;;29.33;43.30;98154.19;2089119;28;20048;-56
2023/07/21 04:10:04;;;;;;;7.80;3.45;;;;;;;29.35;43.40;98149.25;2088469;28;20176;-56
2023/07/21 04:11:06;;;;;;;8.35;3.33;;;;;;;29.35;43.22;98152.00;2085501;28;20048;-55
2023/07/21 04:12:07;;;;;;;7.18;3.33;;;;;;;29.35;43.17;98152.00;2088970;28;20056;-55
2023/07/21 04:13:09;;;;;;;8.68;3.90;;;;;;;29.36;43.16;98147.34;2088411;28;20053;-54
2023/07/21 04:14:10;;;;;;;12.60;4.93;;;;;;;29.33;43.18;98148.72;2086672;28;20051;-55
2023/07/21 04:15:12;;;;;;;18.80;5.38;;;;;;;29.35;43.19;98146.53;2086597;28;20210;-53
2023/07/21 04:16:14;;;;;;;11.20;4.90;;;;;;;29.30;43.28;98148.50;2085806;28;20052;-54
2023/07/21 04:17:16;;;;;;;9.73;5.15;;;;;;;29.31;43.08;98148.22;2087759;28;20045;-51
2023/07/21 04:18:16;;;;;;;9.82;4.25;;;;;;;29.30;43.06;98145.75;2087742;28;20250;-54
2023/07/21 04:19:18;;;;;;;8.65;4.00;;;;;;;29.30;42.91;98143.84;2088252;28;20083;-52
2023/07/21 04:20:19;;;;;;;6.78;3.92;;;;;;;29.32;43.01;98146.28;2082406;28;20277;-52
2023/07/21 04:21:21;;;;;;;9.18;3.70;;;;;;;29.35;42.98;98151.19;2078276;28;20442;-54
2023/07/21 04:22:22;;;;;;;8.93;3.97;;;;;;;29.35;42.96;98151.19;2083415;28;20784;-53
2023/07/21 04:23:24;;;;;;;13.65;4.30;;;;;;;29.37;43.05;98151.72;2085379;28;20492;-50
2023/07/21 04:24:25;;;;;;;16.30;4.80;;;;;;;29.36;43.08;98159.09;2086812;28;20118;-51
2023/07/21 04:25:27;;;;;;;12.65;4.82;;;;;;;29.38;43.11;98156.06;2088756;28;20056;-50
2023/07/21 04:26:28;;;;;;;9.15;4.15;;;;;;;29.39;43.09;98163.16;2086932;28;20056;-51
2023/07/21 04:27:29;;;;;;;10.00;4.13;;;;;;;29.40;43.05;98151.16;2088792;28;20525;-53
2023/07/21 04:28:32;;;;;;;6.97;3.47;;;;;;;29.39;43.13;98157.69;2087407;28;20147;-55
2023/07/21 04:29:34;;;;;;;9.65;4.40;;;;;;;29.40;43.13;98153.88;2082905;28;20137;-52
2023/07/21 04:30:35;;;;;;;6.93;3.20;;;;;;;29.39;43.24;98163.16;2088146;28;20045;-54
2023/07/21 04:31:38;;;;;;;6.25;4.57;;;;;;;29.37;43.18;98159.91;2085559;28;20099;-52
2023/07/21 04:32:39;;;;;;;9.13;3.97;;;;;;;29.38;43.11;98161.53;2088185;28;20069;-54
2023/07/21 04:33:41;;;;;;;6.32;4.43;;;;;;;29.40;43.31;98159.34;2086447;28;20522;-52
2023/07/21 04:34:41;;;;;;;6.45;3.60;;;;;;;29.39;43.20;98163.16;2088065;28;20422;-54
2023/07/21 04:35:46;;;;;;;7.72;4.50;;;;;;;29.37;43.27;98166.19;2086188;28;20090;-54
2023/07/21 04:36:47;;;;;;;9.35;4.03;;;;;;;29.38;43.39;98170.53;2086243;28;20037;-55
2023/07/21 04:37:48;;;;;;;6.13;4.18;;;;;;;29.40;43.37;98170.28;2088519;28;20045;-53
2023/07/21 04:38:49;;;;;;;6.72;3.75;;;;;;;29.39;43.46;98164.00;2086919;28;20056;-54
2023/07/21 04:39:51;;;;;;;11.85;4.95;;;;;;;29.40;43.85;98164.81;2090654;28;20409;-53
2023/07/21 04:40:52;;;;;;;6.65;4.22;;;;;;;29.39;43.66;98155.81;2087417;28;20056;-53
2023/07/21 04:41:54;;;;;;;7.05;4.45;;;;;;;29.37;44.01;98157.19;2086277;28;20049;-54
2023/07/21 04:42:55;;;;;;;9.65;4.03;;;;;;;29.38;43.63;98156.06;2089121;28;20306;-52
2023/07/21 04:43:56;;;;;;;6.13;3.67;;;;;;;29.37;43.72;98158.00;2087781;28;20058;-51
2023/07/21 04:44:57;;;;;;;11.30;4.07;;;;;;;29.36;43.57;98155.53;2088414;28;20048;-51
2023/07/21 04:45:59;;;;;;;8.43;3.80;;;;;;;29.40;43.85;98159.34;2086375;28;20312;-55
2023/07/21 04:47:04;;;;;;;11.88;4.10;;;;;;;29.37;43.73;98140.78;2083662;28;20183;-50
2023/07/21 04:48:06;;;;;;;8.05;3.92;;;;;;;29.37;43.87;98151.72;2086265;28;20605;-54
2023/07/21 04:49:07;;;;;;;6.85;4.28;;;;;;;29.37;43.71;98151.72;2087041;28;20048;-54
2023/07/21 04:50:10;;;;;;;7.97;3.70;;;;;;;29.36;43.63;98148.19;2086475;28;20281;-55
2023/07/21 04:51:10;;;;;;;9.93;3.67;;;;;;;29.37;43.66;98149.00;2088279;28;20041;-51
2023/07/21 04:52:11;;;;;;;8.38;4.25;;;;;;;29.36;43.58;98145.44;2087615;28;20041;-54